Currently 43°F in Pinon Hills, California, USA
43°F
43°F / 41°F
calm
0.00"
Friday, December 6, 2019 3:38 AM PST

Pinon Hills, California Weather Summary
Last 36 Hours

Temperature Winds Hourly Humidity Dewpoint
Time Report Norm Report Norm Max Gusts Precip. Rpt. Norm Rpt. Norm Pressure
1Fri 03:38 AM  42.6°F  43°F  calm  2 mph  3 mph  0.00"  96%  62%  41°F  30°F  30.11"
Fri 03:00 AM  42.5°F  43°F  2 mph SW  2 mph  5 mph  0.00"  96%  63%  41°F  30°F  30.11"
2Fri 02:28 AM  42.9°F  43°F  1 mph SW  2 mph  3 mph  ----  96%  63%  42°F  31°F  30.11"
Fri 02:00 AM  42.5°F  43°F  2 mph SE  2 mph  8 mph  0.00"  96%  63%  41°F  31°F  30.09"
Fri 01:00 AM  42.8°F  43°F  2 mph SE  2 mph  9 mph  0.00"  96%  62%  42°F  31°F  30.09"
3Fri 12:22 AM  41.5°F  44°F  1 mph S  2 mph  4 mph  ----  95%  62%  40°F  31°F  30.10"
Fri 12:00 AM  42.1°F  44°F  2 mph SW  2 mph  7 mph  0.00"  95%  62%  41°F  31°F  30.10"
Thu 11:00 PM  42.4°F  44°F  3 mph SE  2 mph  9 mph  0.00"  96%  62%  41°F  31°F  30.08"
Thu 10:00 PM  42.9°F  44°F  3 mph SE  2 mph  8 mph  0.00"  95%  62%  41°F  32°F  30.08"
Thu 09:00 PM  43.0°F  45°F  2 mph S  2 mph  4 mph  0.00"  96%  62%  42°F  32°F  30.10"
Thu 08:00 PM  43.2°F  45°F  1 mph SE  2 mph  4 mph  0.00"  97%  62%  42°F  32°F  30.09"
Thu 07:00 PM  43.9°F  45°F  1 mph SE  2 mph  6 mph  0.00"  96%  62%  43°F  32°F  30.07"
Thu 06:00 PM  45.2°F  45°F  3 mph SE  2 mph  none  0.00"  96%  62%  44°F  33°F  30.06"
Thu 05:00 PM  45.5°F  46°F  calm  1 mph  1 mph  0.00"  95%  61%  44°F  33°F  30.06"
Thu 04:00 PM  45.9°F  51°F  calm  1 mph  4 mph  0.00"  93%  55%  44°F  35°F  30.04"
Thu 03:00 PM  46.1°F  53°F  calm  3 mph  3 mph  0.00"  91%  51%  43°F  35°F  30.04"
Thu 02:00 PM  45.3°F  54°F  calm  2 mph  3 mph  0.00"  94%  51%  44°F  35°F  30.04"
Thu 01:00 PM  45.0°F  54°F  calm  3 mph  none  0.00"  95%  51%  44°F  35°F  30.05"
Thu 12:00 PM  45.2°F  53°F  calm  3 mph  6 mph  0.00"  95%  52%  44°F  35°F  30.07"
Thu 11:00 AM  46.6°F  52°F  calm  3 mph  none  0.00"  91%  53%  44°F  35°F  30.08"
Thu 10:00 AM  46.8°F  51°F  calm  3 mph  none  0.00"  84%  54%  42°F  34°F  30.10"
Thu 09:00 AM  46.7°F  49°F  calm  2 mph  4 mph  0.00"  81%  55%  41°F  33°F  30.08"
Thu 08:00 AM  40.5°F  46°F  2 mph SW  1 mph  4 mph  0.00"  94%  59%  39°F  31°F  30.06"
Thu 07:00 AM  38.1°F  42°F  3 mph SW  2 mph  7 mph  0.01"  93%  62%  36°F  29°F  30.03"
Thu 06:00 AM  38.2°F  42°F  5 mph SW  2 mph  7 mph  0.00"  94%  63%  37°F  29°F  30.02"
Thu 05:00 AM  36.7°F  42°F  3 mph SW  2 mph  8 mph  0.00"  95%  62%  35°F  29°F  29.98"
Thu 04:00 AM  38.2°F  42°F  5 mph SW  2 mph  8 mph  0.00"  95%  62%  37°F  29°F  29.98"
Thu 03:00 AM  37.5°F  42°F  1 mph SW  2 mph  6 mph  0.00"  95%  61%  36°F  29°F  29.96"
Thu 02:00 AM  39.2°F  42°F  3 mph W  2 mph  6 mph  0.00"  95%  62%  38°F  30°F  29.95"
Thu 01:00 AM  38.7°F  43°F  3 mph SW  2 mph  5 mph  0.00"  98%  61%  38°F  30°F  29.94"
Thu 12:00 AM  39.6°F  43°F  2 mph SW  2 mph  4 mph  0.00"  97%  60%  39°F  30°F  29.94"
Wed 11:00 PM  41.9°F  43°F  calm  3 mph  8 mph  0.00"  96%  60%  41°F  30°F  29.93"
Wed 10:00 PM  42.6°F  43°F  2 mph S  2 mph  11 mph  0.00"  91%  61%  40°F  30°F  29.91"
Wed 09:00 PM  43.2°F  44°F  4 mph SW  2 mph  10 mph  0.00"  95%  61%  42°F  31°F  29.88"
Wed 08:00 PM  42.2°F  44°F  1 mph SW  2 mph  7 mph  0.00"  97%  60%  41°F  31°F  29.87"
Wed 07:00 PM  42.5°F  44°F  3 mph W  2 mph  9 mph  0.00"  98%  61%  42°F  31°F  29.85"
Wed 06:00 PM  43.5°F  45°F  3 mph S  2 mph  8 mph  0.02"  98%  62%  43°F  32°F  29.83"
Wed 05:00 PM  42.9°F  46°F  calm  2 mph  3 mph  0.02"  98%  59%  42°F  32°F  29.83"
Wed 04:00 PM  44.0°F  51°F  calm  1 mph  7 mph  0.00"  98%  53%  43°F  34°F  29.81"

  1. Current weather data. No green row appears if the current weather data is also the high or low for the current day.
  2. High temperature for the current day.
  3. Low temperature for the current day.

The Pinon Hills, California weather pages are a service of WeatherCurrents.
Copyright ©2019  WeatherCurrents. All rights reserved. - Submit questions and comments - Privacy Policy

This page automatically refreshes every 10 minutes.